Time;durP1;ratioP1;P1;durP2;ratioP2;P2;SDS_P1;SDS_P2;PMS_P1;PMS_P2;Temp;Humidity;BMP_temperature;BMP_pressure;BME280_temperature;BME280_humidity;BME280_pressure;Samples;Min_cycle;Max_cycle;Signal;HPM_P1;HPM_P2
2021/09/18 00:00:36;;;;;;;8.50;5.70;;;11.20;99.90;;;;;;1958352;73;21587;-76
2021/09/18 00:03:02;;;;;;;16.65;5.80;;;11.20;99.90;;;;;;1958734;73;21423;-76
2021/09/18 00:05:28;;;;;;;5.85;5.35;;;11.10;99.90;;;;;;1959386;73;21075;-76
2021/09/18 00:07:54;;;;;;;6.25;5.40;;;11.10;99.90;;;;;;1958241;73;21055;-76
2021/09/18 00:10:20;;;;;;;8.10;5.65;;;11.10;99.90;;;;;;1958385;73;21058;-75
2021/09/18 00:12:47;;;;;;;7.78;5.33;;;11.00;99.90;;;;;;1958198;73;21037;-75
2021/09/18 00:15:13;;;;;;;5.75;5.15;;;11.00;99.90;;;;;;1958456;72;21084;-75
2021/09/18 00:17:39;;;;;;;5.95;5.30;;;10.90;99.90;;;;;;1958297;73;21054;-75
2021/09/18 00:20:05;;;;;;;9.10;5.42;;;11.00;99.90;;;;;;1958462;72;21055;-75
2021/09/18 00:22:31;;;;;;;7.67;5.00;;;11.00;99.90;;;;;;1958232;73;21070;-75
2021/09/18 00:24:57;;;;;;;8.28;6.47;;;10.90;99.90;;;;;;1958418;73;21076;-76
2021/09/18 00:27:24;;;;;;;7.65;6.22;;;11.00;99.90;;;;;;1958304;73;21124;-75
2021/09/18 00:29:50;;;;;;;7.12;4.87;;;11.00;99.90;;;;;;1958368;73;21132;-76
2021/09/18 00:32:16;;;;;;;6.25;4.95;;;11.00;99.90;;;;;;1958206;73;21573;-75
2021/09/18 00:34:42;;;;;;;5.80;4.50;;;10.90;99.90;;;;;;1958342;72;21161;-75
2021/09/18 00:37:08;;;;;;;8.28;4.80;;;10.90;99.90;;;;;;1958310;73;21431;-75
2021/09/18 00:39:34;;;;;;;5.00;4.53;;;11.00;99.90;;;;;;1958287;73;21540;-76
2021/09/18 00:42:00;;;;;;;6.47;4.65;;;10.90;99.90;;;;;;1958286;73;21585;-75
2021/09/18 00:44:26;;;;;;;7.03;4.80;;;10.80;99.90;;;;;;1958381;73;21554;-76
2021/09/18 00:46:52;;;;;;;5.78;4.80;;;10.80;99.90;;;;;;1958170;73;21561;-76
2021/09/18 00:49:19;;;;;;;6.33;5.08;;;10.70;99.90;;;;;;1958486;73;21124;-75
2021/09/18 00:51:45;;;;;;;8.10;4.72;;;10.70;99.90;;;;;;1958236;73;21059;-75
2021/09/18 00:54:11;;;;;;;4.90;4.35;;;10.60;99.90;;;;;;1958481;72;21091;-75
2021/09/18 00:56:37;;;;;;;7.33;4.30;;;10.60;99.90;;;;;;1958246;72;21066;-75
2021/09/18 00:59:03;;;;;;;9.73;5.12;;;10.60;99.90;;;;;;1958347;73;21129;-75
2021/09/18 01:01:29;;;;;;;5.33;4.65;;;10.60;99.90;;;;;;1958185;73;21063;-75
2021/09/18 01:03:55;;;;;;;10.32;4.87;;;10.60;99.90;;;;;;1958374;72;21161;-75
2021/09/18 01:06:21;;;;;;;8.33;4.72;;;10.60;99.90;;;;;;1958323;73;21236;-75
2021/09/18 01:08:48;;;;;;;5.65;4.65;;;10.60;99.90;;;;;;1958317;73;21054;-75
2021/09/18 01:11:14;;;;;;;13.75;4.78;;;10.50;99.90;;;;;;1958223;73;21035;-75
2021/09/18 01:13:40;;;;;;;6.42;4.62;;;10.50;99.90;;;;;;1958415;73;21087;-75
2021/09/18 01:16:06;;;;;;;6.15;4.40;;;10.50;99.90;;;;;;1958486;73;21156;-75
2021/09/18 01:18:32;;;;;;;10.38;5.12;;;10.50;99.90;;;;;;1958547;73;21027;-76
2021/09/18 01:20:58;;;;;;;8.28;5.12;;;10.60;99.90;;;;;;1958627;73;21031;-76
2021/09/18 01:23:24;;;;;;;7.30;4.72;;;10.60;99.90;;;;;;1958649;73;21117;-76
2021/09/18 01:25:50;;;;;;;4.92;4.53;;;10.60;99.90;;;;;;1958605;73;21063;-75
2021/09/18 01:28:17;;;;;;;7.87;5.10;;;10.60;99.90;;;;;;1958640;72;21086;-75
2021/09/18 01:30:43;;;;;;;7.00;4.80;;;10.60;99.90;;;;;;1958555;73;21035;-76
2021/09/18 01:33:09;;;;;;;7.45;4.97;;;10.60;99.90;;;;;;1958764;73;21031;-76
2021/09/18 01:35:35;;;;;;;6.25;4.83;;;10.50;99.90;;;;;;1958680;73;21095;-75
2021/09/18 01:38:01;;;;;;;8.40;5.05;;;10.50;99.90;;;;;;1958588;73;21062;-76
2021/09/18 01:40:27;;;;;;;6.12;4.83;;;10.50;99.90;;;;;;1958557;73;21071;-75
2021/09/18 01:42:53;;;;;;;7.72;5.85;;;10.50;99.90;;;;;;1958533;73;21063;-75
2021/09/18 01:45:19;;;;;;;7.65;6.50;;;10.40;99.90;;;;;;1958669;73;21124;-74
2021/09/18 01:47:46;;;;;;;6.05;5.30;;;10.40;99.90;;;;;;1958623;73;21524;-75
2021/09/18 01:50:12;;;;;;;6.60;6.00;;;10.40;99.90;;;;;;1958437;73;21157;-75
2021/09/18 01:52:47;;;;;;;6.72;5.92;;;10.40;99.90;;;;;;1958844;73;21055;-75
2021/09/18 01:55:06;;;;;;;6.60;5.90;;;10.40;99.90;;;;;;1956404;73;21515;-75
2021/09/18 01:57:32;;;;;;;7.37;6.33;;;10.30;99.90;;;;;;1958617;73;21467;-76
2021/09/18 01:59:58;;;;;;;9.50;6.47;;;10.40;99.90;;;;;;1958485;72;21568;-75
2021/09/18 02:02:24;;;;;;;6.37;5.78;;;10.40;99.90;;;;;;1958657;73;21094;-75
2021/09/18 02:04:50;;;;;;;6.60;5.90;;;10.40;99.90;;;;;;1958364;73;21116;-75
2021/09/18 02:07:16;;;;;;;7.53;6.33;;;10.40;99.90;;;;;;1958409;73;21079;-77
2021/09/18 02:09:42;;;;;;;10.32;5.50;;;10.30;99.90;;;;;;1958467;73;21118;-76
2021/09/18 02:12:09;;;;;;;7.70;4.80;;;10.30;99.90;;;;;;1958545;73;21063;-74
2021/09/18 02:14:35;;;;;;;7.03;4.90;;;10.40;99.90;;;;;;1958522;72;21099;-75
2021/09/18 02:17:01;;;;;;;5.75;5.15;;;10.30;99.90;;;;;;1958586;72;21160;-75
2021/09/18 02:19:27;;;;;;;6.85;5.33;;;10.40;99.90;;;;;;1958576;73;21082;-75
2021/09/18 02:21:53;;;;;;;7.15;5.25;;;10.40;99.90;;;;;;1958585;73;21070;-75
2021/09/18 02:24:19;;;;;;;7.90;5.65;;;10.30;99.90;;;;;;1958420;73;21088;-75
2021/09/18 02:26:45;;;;;;;16.62;5.37;;;10.20;99.90;;;;;;1958670;73;21078;-75
2021/09/18 02:29:12;;;;;;;5.80;5.20;;;10.20;99.90;;;;;;1958279;72;21071;-75
2021/09/18 02:31:38;;;;;;;7.05;5.65;;;10.20;99.90;;;;;;1958423;73;21209;-75
2021/09/18 02:34:04;;;;;;;7.28;5.37;;;10.20;99.90;;;;;;1958435;73;21076;-75
2021/09/18 02:36:30;;;;;;;12.18;5.33;;;10.10;99.90;;;;;;1958432;73;21063;-74
2021/09/18 02:38:56;;;;;;;41.13;6.33;;;10.10;99.90;;;;;;1958427;73;21144;-75
2021/09/18 02:41:22;;;;;;;7.03;5.28;;;10.10;99.90;;;;;;1958273;73;21124;-75
2021/09/18 02:43:48;;;;;;;8.03;5.75;;;10.00;99.90;;;;;;1958459;73;21031;-75
2021/09/18 02:46:14;;;;;;;5.62;5.08;;;10.00;99.90;;;;;;1958321;73;21153;-75
2021/09/18 02:48:40;;;;;;;9.90;5.25;;;10.10;99.90;;;;;;1958298;73;21052;-75
2021/09/18 02:51:07;;;;;;;6.42;5.83;;;10.00;99.90;;;;;;1958301;73;21139;-75
2021/09/18 02:53:33;;;;;;;6.20;5.60;;;10.00;99.90;;;;;;1958397;73;21030;-75
2021/09/18 02:56:02;;;;;;;8.43;5.45;;;10.00;99.90;;;;;;1958463;73;21088;-75
2021/09/18 02:58:27;;;;;;;11.65;5.60;;;10.00;99.90;;;;;;1957930;73;21142;-75
2021/09/18 03:00:53;;;;;;;6.12;5.33;;;10.00;99.90;;;;;;1958299;73;21030;-75
2021/09/18 03:03:19;;;;;;;6.42;5.10;;;10.00;99.90;;;;;;1958321;73;21058;-75
2021/09/18 03:05:45;;;;;;;7.87;5.62;;;10.00;99.90;;;;;;1958343;73;21074;-76
2021/09/18 03:08:11;;;;;;;7.97;5.45;;;10.00;99.90;;;;;;1958328;72;21088;-75
2021/09/18 03:10:37;;;;;;;17.23;5.83;;;10.00;99.90;;;;;;1958341;73;21366;-74
2021/09/18 03:13:03;;;;;;;11.10;5.40;;;9.90;99.90;;;;;;1958472;73;21168;-75
2021/09/18 03:15:30;;;;;;;8.73;5.17;;;9.90;99.90;;;;;;1958420;72;21063;-75
2021/09/18 03:17:57;;;;;;;5.50;5.00;;;9.90;99.90;;;;;;1958488;73;21080;-75
2021/09/18 03:20:23;;;;;;;10.28;5.42;;;9.90;99.90;;;;;;1958383;73;21070;-75
2021/09/18 03:22:49;;;;;;;8.70;5.75;;;9.90;99.90;;;;;;1958445;73;21132;-75
2021/09/18 03:25:16;;;;;;;12.20;5.90;;;9.90;99.90;;;;;;1958376;73;21124;-75
2021/09/18 03:27:42;;;;;;;5.95;4.87;;;9.90;99.90;;;;;;1958560;73;21091;-75
2021/09/18 03:30:08;;;;;;;6.22;5.15;;;9.80;99.90;;;;;;1958567;73;21164;-75
2021/09/18 03:32:34;;;;;;;7.12;5.87;;;9.80;99.90;;;;;;1958514;73;21054;-75
2021/09/18 03:35:00;;;;;;;6.03;5.45;;;9.80;99.90;;;;;;1959035;73;21083;-75
2021/09/18 03:37:26;;;;;;;8.30;5.85;;;9.80;99.90;;;;;;1959477;73;21081;-75
2021/09/18 03:39:52;;;;;;;7.65;5.78;;;9.80;99.90;;;;;;1958827;73;21120;-75
2021/09/18 03:42:18;;;;;;;10.00;5.97;;;9.70;99.90;;;;;;1958486;73;21059;-76
2021/09/18 03:44:48;;;;;;;8.00;6.10;;;9.70;99.90;;;;;;1958319;73;21075;-76
2021/09/18 03:47:12;;;;;;;8.33;5.95;;;9.70;99.90;;;;;;1957807;73;21087;-75
2021/09/18 03:49:38;;;;;;;5.90;5.30;;;9.70;99.90;;;;;;1958654;73;21132;-76
2021/09/18 03:52:05;;;;;;;6.33;5.67;;;9.70;99.90;;;;;;1958600;73;21062;-75
2021/09/18 03:54:31;;;;;;;8.55;6.47;;;9.70;99.90;;;;;;1958689;73;21203;-75
2021/09/18 03:56:57;;;;;;;6.03;5.40;;;9.70;99.90;;;;;;1958736;72;21059;-75
2021/09/18 03:59:23;;;;;;;9.80;6.10;;;9.60;99.90;;;;;;1958325;73;21194;-77
2021/09/18 04:01:49;;;;;;;6.62;5.53;;;9.70;99.90;;;;;;1958482;73;21165;-76
2021/09/18 04:04:15;;;;;;;7.40;5.08;;;9.60;99.90;;;;;;1958341;72;21039;-75
2021/09/18 04:06:41;;;;;;;6.53;5.15;;;9.60;99.90;;;;;;1958532;73;21075;-75
2021/09/18 04:09:07;;;;;;;7.33;5.47;;;9.50;99.90;;;;;;1958382;73;21518;-76
2021/09/18 04:11:33;;;;;;;7.47;5.97;;;9.60;99.90;;;;;;1958385;73;21552;-75
2021/09/18 04:14:00;;;;;;;6.10;5.47;;;9.50;99.90;;;;;;1958413;73;21523;-74
2021/09/18 04:16:26;;;;;;;10.50;6.30;;;9.50;99.90;;;;;;1958553;73;21406;-75
2021/09/18 04:18:52;;;;;;;6.53;5.70;;;9.50;99.90;;;;;;1958484;73;21198;-75
2021/09/18 04:21:19;;;;;;;5.92;5.28;;;9.50;99.90;;;;;;1958386;73;21067;-75
2021/09/18 04:23:45;;;;;;;9.95;5.90;;;9.40;99.90;;;;;;1958465;73;21102;-75
2021/09/18 04:26:11;;;;;;;8.45;5.83;;;9.40;99.90;;;;;;1958355;73;21076;-75
2021/09/18 04:28:37;;;;;;;8.60;5.95;;;9.40;99.90;;;;;;1958470;73;21109;-75
2021/09/18 04:31:03;;;;;;;8.10;6.25;;;9.30;99.90;;;;;;1958327;73;21059;-74
2021/09/18 04:33:30;;;;;;;6.83;6.17;;;9.30;99.90;;;;;;1958358;73;21088;-74
2021/09/18 04:35:56;;;;;;;8.65;6.75;;;9.30;99.90;;;;;;1958497;73;21083;-76
2021/09/18 04:38:22;;;;;;;10.00;6.65;;;9.30;99.90;;;;;;1958410;73;21080;-75
2021/09/18 04:40:48;;;;;;;7.35;6.35;;;9.30;99.90;;;;;;1958378;73;21192;-74
2021/09/18 04:43:14;;;;;;;7.37;6.05;;;9.30;99.90;;;;;;1958375;73;21058;-75
2021/09/18 04:45:40;;;;;;;7.85;7.05;;;9.30;99.90;;;;;;1958419;73;21047;-75
2021/09/18 04:48:06;;;;;;;8.23;6.42;;;9.30;99.90;;;;;;1958580;72;21050;-74
2021/09/18 04:50:32;;;;;;;9.05;6.78;;;9.20;99.90;;;;;;1958308;73;21171;-75
2021/09/18 04:52:58;;;;;;;7.03;6.35;;;9.20;99.90;;;;;;1958350;73;21134;-74
2021/09/18 04:55:25;;;;;;;7.30;6.42;;;9.20;99.90;;;;;;1958497;73;21171;-74
2021/09/18 04:57:51;;;;;;;7.95;6.65;;;9.20;99.90;;;;;;1958310;73;21063;-74
2021/09/18 05:00:17;;;;;;;8.50;6.65;;;9.20;99.90;;;;;;1958516;73;21569;-74
2021/09/18 05:02:43;;;;;;;6.25;5.72;;;9.20;99.90;;;;;;1958344;73;21478;-74
2021/09/18 05:05:09;;;;;;;8.50;6.33;;;9.10;99.90;;;;;;1958419;73;21495;-75
2021/09/18 05:07:35;;;;;;;11.95;6.90;;;9.10;99.90;;;;;;1958241;73;21051;-74
2021/09/18 05:10:01;;;;;;;8.38;6.47;;;9.10;99.90;;;;;;1958552;73;21051;-74
2021/09/18 05:12:27;;;;;;;9.03;7.60;;;9.20;99.90;;;;;;1958209;73;21179;-74
2021/09/18 05:14:54;;;;;;;7.20;6.50;;;9.20;99.90;;;;;;1958546;73;21162;-75
2021/09/18 05:17:20;;;;;;;8.40;7.50;;;9.20;99.90;;;;;;1958268;73;21043;-74
2021/09/18 05:19:46;;;;;;;7.65;6.60;;;9.30;99.90;;;;;;1958420;73;21027;-75
2021/09/18 05:22:12;;;;;;;14.00;6.28;;;9.30;99.90;;;;;;1958283;73;21058;-74
2021/09/18 05:24:38;;;;;;;8.85;6.53;;;9.20;99.90;;;;;;1958305;72;21166;-75
2021/09/18 05:27:05;;;;;;;6.72;6.08;;;9.30;99.90;;;;;;1958273;73;21051;-74
2021/09/18 05:29:31;;;;;;;8.58;7.42;;;9.30;99.90;;;;;;1958287;73;21144;-75
2021/09/18 05:31:57;;;;;;;8.30;6.60;;;9.40;99.90;;;;;;1958289;73;21099;-73
2021/09/18 05:34:24;;;;;;;8.30;7.30;;;9.30;99.90;;;;;;1958271;73;21028;-74
2021/09/18 05:36:50;;;;;;;9.35;7.35;;;9.30;99.90;;;;;;1958356;72;21051;-74
2021/09/18 05:39:16;;;;;;;9.38;7.60;;;9.40;99.90;;;;;;1958144;73;21050;-73
2021/09/18 05:41:42;;;;;;;12.20;7.55;;;9.40;99.90;;;;;;1958436;73;21145;-75
2021/09/18 05:44:10;;;;;;;8.35;6.72;;;9.40;99.90;;;;;;1958397;73;21153;-74
2021/09/18 05:46:36;;;;;;;8.03;6.72;;;9.50;99.90;;;;;;1958193;73;21059;-75
2021/09/18 05:49:02;;;;;;;10.28;7.85;;;9.50;99.90;;;;;;1958462;73;21133;-74
2021/09/18 05:51:29;;;;;;;11.38;7.70;;;9.50;99.90;;;;;;1958230;72;21031;-75
2021/09/18 05:53:56;;;;;;;9.33;7.62;;;9.50;99.90;;;;;;1958301;73;21035;-75
2021/09/18 05:56:22;;;;;;;8.58;7.03;;;9.50;99.90;;;;;;1958435;73;21120;-76
2021/09/18 05:58:48;;;;;;;14.07;7.67;;;9.60;99.90;;;;;;1958264;72;21249;-76
2021/09/18 06:01:14;;;;;;;9.55;7.60;;;9.60;99.90;;;;;;1958446;73;21076;-77
2021/09/18 06:03:40;;;;;;;13.10;7.90;;;9.60;99.90;;;;;;1958346;72;21113;-77
2021/09/18 06:06:06;;;;;;;11.00;7.55;;;9.60;99.90;;;;;;1958387;72;21050;-77
2021/09/18 06:08:32;;;;;;;11.15;7.58;;;9.60;99.90;;;;;;1958400;73;21083;-76
2021/09/18 06:10:59;;;;;;;9.90;7.53;;;9.60;99.90;;;;;;1958382;73;21141;-75
2021/09/18 06:13:25;;;;;;;7.55;6.85;;;9.60;99.90;;;;;;1958382;72;21180;-74
2021/09/18 06:15:51;;;;;;;14.68;7.62;;;9.70;99.90;;;;;;1958428;73;21153;-74
2021/09/18 06:18:17;;;;;;;9.68;7.55;;;9.70;99.90;;;;;;1958323;73;21051;-77
2021/09/18 06:20:43;;;;;;;8.20;6.75;;;9.70;99.90;;;;;;1958630;73;21092;-75
2021/09/18 06:23:09;;;;;;;7.25;6.60;;;9.70;99.90;;;;;;1958340;73;21524;-76
2021/09/18 06:25:35;;;;;;;8.30;7.40;;;9.80;99.90;;;;;;1958473;73;21498;-77
2021/09/18 06:28:01;;;;;;;9.50;7.72;;;9.70;99.90;;;;;;1958689;72;21474;-82
2021/09/18 06:30:27;;;;;;;8.98;7.00;;;9.80;99.90;;;;;;1958662;73;21068;-77
2021/09/18 06:32:54;;;;;;;10.40;7.17;;;9.80;99.90;;;;;;1958414;73;21062;-76
2021/09/18 06:35:20;;;;;;;11.45;6.87;;;9.80;99.90;;;;;;1958480;72;21149;-75
2021/09/18 06:37:46;;;;;;;11.90;7.78;;;9.90;99.90;;;;;;1958626;72;21054;-76
2021/09/18 06:40:14;;;;;;;8.60;7.45;;;9.90;99.90;;;;;;1958461;73;21051;-75
2021/09/18 06:42:40;;;;;;;7.65;6.87;;;10.00;99.90;;;;;;1958441;72;21452;-75
2021/09/18 06:45:06;;;;;;;8.18;7.25;;;10.00;99.90;;;;;;1958275;73;21433;-75
2021/09/18 06:47:32;;;;;;;9.48;7.30;;;10.10;99.90;;;;;;1958649;73;21059;-75
2021/09/18 06:49:58;;;;;;;10.30;6.95;;;10.20;99.90;;;;;;1958426;73;21171;-75
2021/09/18 06:52:24;;;;;;;8.23;6.87;;;10.30;99.90;;;;;;1958466;73;21063;-74
2021/09/18 06:54:50;;;;;;;10.32;7.40;;;10.20;99.90;;;;;;1958416;72;21058;-76
2021/09/18 06:57:16;;;;;;;8.58;7.33;;;10.20;99.90;;;;;;1958517;73;21156;-75
2021/09/18 06:59:43;;;;;;;7.85;6.97;;;10.20;99.90;;;;;;1958335;72;21055;-76
2021/09/18 07:02:09;;;;;;;10.60;6.87;;;10.30;99.90;;;;;;1958523;73;21072;-75
2021/09/18 07:04:36;;;;;;;7.85;6.87;;;10.40;99.90;;;;;;1958465;72;21059;-75
2021/09/18 07:07:03;;;;;;;8.25;6.85;;;10.50;99.90;;;;;;1958376;73;21545;-76
2021/09/18 07:09:29;;;;;;;8.03;7.17;;;10.50;99.90;;;;;;1958342;73;21478;-77
2021/09/18 07:11:57;;;;;;;7.53;6.72;;;10.60;99.90;;;;;;1924115;73;21329;-77
2021/09/18 07:14:23;;;;;;;6.97;6.37;;;10.70;99.90;;;;;;1957449;72;21096;-76
2021/09/18 07:16:49;;;;;;;9.18;7.58;;;10.90;99.90;;;;;;1958613;73;21156;-75
2021/09/18 07:19:15;;;;;;;7.00;6.30;;;11.00;99.90;;;;;;1958432;73;21066;-79
2021/09/18 07:21:42;;;;;;;6.92;6.03;;;11.00;99.90;;;;;;1958509;72;21075;-77
2021/09/18 07:24:09;;;;;;;7.15;6.42;;;11.00;99.90;;;;;;1958626;73;21091;-78
2021/09/18 07:26:35;;;;;;;15.95;7.00;;;11.20;99.90;;;;;;1958650;73;21149;-78
2021/09/18 07:29:01;;;;;;;8.00;6.75;;;11.20;99.90;;;;;;1958653;73;21176;-79
2021/09/18 07:31:28;;;;;;;6.67;5.97;;;11.30;99.90;;;;;;1958596;73;21552;-76
2021/09/18 07:33:54;;;;;;;7.20;6.50;;;11.50;99.90;;;;;;1958591;72;21149;-78
2021/09/18 07:36:20;;;;;;;7.22;6.53;;;11.50;99.90;;;;;;1958454;73;21019;-78
2021/09/18 07:38:46;;;;;;;7.30;6.60;;;11.50;99.90;;;;;;1958534;73;21242;-77
2021/09/18 07:41:12;;;;;;;22.22;7.55;;;11.60;99.90;;;;;;1958411;72;21031;-78
2021/09/18 07:43:38;;;;;;;7.53;6.75;;;11.60;99.90;;;;;;1958494;73;21212;-78
2021/09/18 07:46:04;;;;;;;8.53;6.95;;;11.70;99.90;;;;;;1958408;72;21051;-80
2021/09/18 07:48:31;;;;;;;8.95;7.33;;;12.00;99.90;;;;;;1924143;73;21051;-79
2021/09/18 07:50:57;;;;;;;9.60;7.25;;;12.10;99.90;;;;;;1958541;73;21001;-79
2021/09/18 07:53:26;;;;;;;8.83;6.95;;;12.20;99.90;;;;;;1959065;72;21063;-81
2021/09/18 07:55:52;;;;;;;7.08;6.37;;;12.40;99.90;;;;;;1959052;73;21087;-75
2021/09/18 07:58:20;;;;;;;9.83;7.22;;;12.80;99.90;;;;;;1959812;72;21079;-74
2021/09/18 08:00:46;;;;;;;6.58;5.85;;;12.80;99.90;;;;;;1960094;72;21432;-77
2021/09/18 08:03:13;;;;;;;8.03;6.97;;;13.10;99.90;;;;;;1958720;73;21380;-74
2021/09/18 08:05:39;;;;;;;7.10;6.35;;;13.20;99.90;;;;;;1958387;72;21039;-74
2021/09/18 08:08:05;;;;;;;7.50;5.85;;;13.30;99.90;;;;;;1958469;73;21079;-74
2021/09/18 08:10:32;;;;;;;11.18;6.80;;;13.60;99.90;;;;;;1958599;72;21112;-72
2021/09/18 08:12:58;;;;;;;9.13;6.17;;;13.80;99.90;;;;;;1958312;73;21238;-75
2021/09/18 08:15:25;;;;;;;9.08;6.10;;;14.30;99.90;;;;;;1958445;73;21058;-71
2021/09/18 08:17:51;;;;;;;7.50;5.53;;;14.50;99.90;;;;;;1958332;73;21054;-69
2021/09/18 08:20:17;;;;;;;6.22;4.90;;;14.70;99.90;;;;;;1958537;72;21153;-73
2021/09/18 08:22:43;;;;;;;8.48;6.37;;;15.00;99.90;;;;;;1958325;73;21031;-76
2021/09/18 08:25:09;;;;;;;7.78;5.72;;;15.00;99.90;;;;;;1958454;73;21058;-73
2021/09/18 08:27:35;;;;;;;6.22;5.62;;;15.30;99.90;;;;;;1958614;73;21051;-75
2021/09/18 08:30:01;;;;;;;7.47;5.55;;;15.50;99.90;;;;;;1959000;73;21153;-74
2021/09/18 08:32:27;;;;;;;7.67;5.80;;;15.60;99.90;;;;;;1958760;73;21123;-72
2021/09/18 08:34:54;;;;;;;6.15;4.85;;;15.70;99.90;;;;;;1958735;73;21088;-74
2021/09/18 08:37:20;;;;;;;5.97;4.80;;;16.20;99.90;;;;;;1958932;73;21510;-73
2021/09/18 08:39:46;;;;;;;5.15;4.65;;;16.20;99.90;;;;;;1959730;73;21056;-70
2021/09/18 08:42:13;;;;;;;5.03;4.47;;;16.40;99.90;;;;;;1960495;73;21072;-72
2021/09/18 08:44:40;;;;;;;5.40;4.05;;;16.90;99.90;;;;;;1960907;73;21071;-71
2021/09/18 08:47:06;;;;;;;4.05;3.75;;;17.30;99.90;;;;;;1960922;73;21449;-73
2021/09/18 08:49:33;;;;;;;6.08;4.47;;;17.40;99.90;;;;;;1962065;72;21051;-77
2021/09/18 08:51:59;;;;;;;5.95;4.08;;;17.40;99.90;;;;;;1960935;73;21188;-75
2021/09/18 08:54:25;;;;;;;7.35;4.22;;;17.20;99.90;;;;;;1959283;73;21027;-75
2021/09/18 08:56:51;;;;;;;4.42;3.80;;;17.30;99.90;;;;;;1958732;73;21084;-71
2021/09/18 08:59:17;;;;;;;3.50;3.20;;;17.40;99.90;;;;;;1958649;73;21172;-73
2021/09/18 09:01:43;;;;;;;5.00;4.00;;;17.70;99.90;;;;;;1958468;73;21050;-71
2021/09/18 09:04:10;;;;;;;8.00;3.65;;;17.90;99.90;;;;;;1958435;73;21164;-76
2021/09/18 09:06:36;;;;;;;4.67;4.03;;;18.40;99.90;;;;;;1958481;72;21147;-72
2021/09/18 09:09:02;;;;;;;4.97;3.75;;;18.20;99.90;;;;;;1958473;73;21071;-73
2021/09/18 09:11:29;;;;;;;3.52;3.22;;;17.70;99.90;;;;;;1958468;73;21103;-70
2021/09/18 09:13:55;;;;;;;3.80;3.50;;;17.70;99.90;;;;;;1958450;73;21075;-70
2021/09/18 09:16:21;;;;;;;3.95;3.37;;;18.00;99.90;;;;;;1958246;73;21125;-74
2021/09/18 09:18:47;;;;;;;6.20;3.80;;;18.20;99.90;;;;;;1958611;72;21058;-74
2021/09/18 09:21:13;;;;;;;5.08;3.85;;;18.20;99.90;;;;;;1958354;73;21117;-73
2021/09/18 09:23:39;;;;;;;3.98;3.27;;;18.20;99.90;;;;;;1958509;72;21116;-72
2021/09/18 09:26:06;;;;;;;5.53;3.75;;;18.70;99.90;;;;;;1958367;73;21107;-73
2021/09/18 09:28:32;;;;;;;3.55;3.25;;;19.40;99.90;;;;;;1958242;72;21136;-73
2021/09/18 09:31:01;;;;;;;4.60;3.72;;;20.00;99.90;;;;;;1958284;73;21101;-74
2021/09/18 09:33:26;;;;;;;3.52;3.00;;;20.60;99.90;;;;;;1957971;72;21483;-72
2021/09/18 09:35:52;;;;;;;9.23;3.65;;;20.40;99.90;;;;;;1958277;73;21511;-74
2021/09/18 09:38:18;;;;;;;4.85;3.47;;;19.80;99.90;;;;;;1958396;73;21534;-72
2021/09/18 09:40:44;;;;;;;4.25;3.30;;;19.40;99.90;;;;;;1958432;73;21565;-72
2021/09/18 09:43:11;;;;;;;12.28;3.00;;;19.60;99.90;;;;;;1958408;72;21472;-70
2021/09/18 09:45:37;;;;;;;3.00;2.72;;;19.90;99.90;;;;;;1958387;73;21075;-70
2021/09/18 09:48:03;;;;;;;4.00;2.95;;;20.30;99.90;;;;;;1958421;73;21050;-71
2021/09/18 09:50:29;;;;;;;2.77;2.58;;;20.50;99.90;;;;;;1958315;73;21137;-70
2021/09/18 09:52:56;;;;;;;4.72;3.05;;;21.20;99.90;;;;;;1958424;73;21067;-69
2021/09/18 09:55:22;;;;;;;2.85;2.50;;;21.10;99.90;;;;;;1958320;73;21056;-72
2021/09/18 09:57:49;;;;;;;3.60;2.60;;;21.70;99.90;;;;;;1958397;73;21082;-71
2021/09/18 10:00:15;;;;;;;2.60;2.15;;;22.20;99.90;;;;;;1958341;73;21080;-72
2021/09/18 10:02:41;;;;;;;2.40;2.20;;;22.40;99.90;;;;;;1958436;72;21099;-71
2021/09/18 10:05:07;;;;;;;3.10;2.02;;;22.40;99.90;;;;;;1958638;73;21482;-71
2021/09/18 10:07:33;;;;;;;3.47;2.40;;;21.80;99.90;;;;;;1958841;73;21524;-71
2021/09/18 10:10:00;;;;;;;3.52;2.15;;;21.70;99.90;;;;;;1958385;73;21546;-71
2021/09/18 10:12:26;;;;;;;2.60;1.87;;;21.70;99.90;;;;;;1958575;73;21123;-71
2021/09/18 10:14:52;;;;;;;2.20;1.70;;;22.10;99.90;;;;;;1958608;73;21168;-71
2021/09/18 10:17:18;;;;;;;2.30;1.67;;;21.90;99.90;;;;;;1958602;73;21106;-71
2021/09/18 10:20:00;;;;;;;1.50;1.40;;;22.40;99.90;;;;;;1958578;73;21035;-73
2021/09/18 10:24:56;;;;;;;3.10;1.40;;;23.10;99.90;;;;;;1958543;73;21038;-71
2021/09/18 10:27:23;;;;;;;1.67;1.25;;;23.50;99.90;;;;;;1958555;73;21059;-72
2021/09/18 10:29:49;;;;;;;2.35;1.10;;;22.60;99.90;;;;;;1958501;72;21098;-73
2021/09/18 10:32:15;;;;;;;6.67;1.65;;;22.40;99.90;;;;;;1958723;73;21054;-76
2021/09/18 10:34:41;;;;;;;2.25;1.62;;;22.20;99.90;;;;;;1958566;73;21059;-70
2021/09/18 10:37:07;;;;;;;1.10;1.10;;;22.50;99.90;;;;;;1958337;73;21058;-71
2021/09/18 10:39:33;;;;;;;1.95;1.12;;;22.30;99.90;;;;;;1958515;73;21079;-72
2021/09/18 10:41:59;;;;;;;1.35;1.22;;;22.30;99.90;;;;;;1958549;73;21173;-72
2021/09/18 10:44:25;;;;;;;1.10;1.10;;;22.40;99.90;;;;;;1958316;73;21043;-71
2021/09/18 10:46:52;;;;;;;1.32;1.22;;;22.50;99.90;;;;;;1958496;73;21063;-71
2021/09/18 10:49:18;;;;;;;2.95;1.47;;;22.50;99.90;;;;;;1958331;73;21047;-72
2021/09/18 10:51:44;;;;;;;1.52;1.40;;;22.60;99.90;;;;;;1958414;72;21099;-71
2021/09/18 10:54:10;;;;;;;1.77;1.52;;;22.40;99.90;;;;;;1958274;72;21149;-72
2021/09/18 10:56:36;;;;;;;1.47;1.37;;;22.40;99.90;;;;;;1958472;72;21083;-71
2021/09/18 10:59:02;;;;;;;2.42;1.47;;;22.80;99.90;;;;;;1958310;73;21046;-72
2021/09/18 11:01:28;;;;;;;1.60;1.42;;;22.90;99.90;;;;;;1958497;73;21123;-72
2021/09/18 11:03:58;;;;;;;2.35;1.40;;;23.10;99.90;;;;;;1958355;73;21046;-73
2021/09/18 11:06:22;;;;;;;1.87;1.30;;;23.30;99.90;;;;;;1957826;72;21565;-72
2021/09/18 11:08:48;;;;;;;1.47;1.37;;;23.70;99.90;;;;;;1958745;73;21161;-74
2021/09/18 11:11:14;;;;;;;1.10;1.05;;;23.90;99.90;;;;;;1958540;73;21548;-74
2021/09/18 11:13:41;;;;;;;3.15;2.42;;;23.60;99.90;;;;;;1958624;73;21532;-75
2021/09/18 11:16:07;;;;;;;6.28;3.35;;;23.20;99.90;;;;;;1958575;73;21428;-74
2021/09/18 11:18:37;;;;;;;1.62;1.52;;;23.80;99.90;;;;;;1958425;73;21128;-72
2021/09/18 11:21:01;;;;;;;2.10;1.20;;;24.90;99.90;;;;;;1956909;73;21149;-72
2021/09/18 11:23:27;;;;;;;3.00;1.75;;;24.90;99.90;;;;;;1958949;73;21168;-70
2021/09/18 11:25:53;;;;;;;1.82;1.50;;;24.40;99.90;;;;;;1961554;73;21043;-76
2021/09/18 11:28:20;;;;;;;3.47;1.30;;;25.00;99.90;;;;;;1960863;72;21134;-70
2021/09/18 11:30:46;;;;;;;1.67;1.10;;;25.50;99.90;;;;;;1960293;73;21137;-70
2021/09/18 11:33:12;;;;;;;2.75;1.12;;;25.10;99.90;;;;;;1960485;73;21125;-70
2021/09/18 11:35:38;;;;;;;0.90;0.90;;;25.10;99.90;;;;;;1961164;73;21365;-69
2021/09/18 11:38:08;;;;;;;1.62;1.02;;;25.30;99.90;;;;;;1961286;73;21032;-68
2021/09/18 11:40:34;;;;;;;1.02;0.93;;;25.40;99.90;;;;;;1960678;73;21075;-69
2021/09/18 11:43:00;;;;;;;2.10;1.10;;;25.00;99.90;;;;;;1961100;73;21083;-68
2021/09/18 11:45:26;;;;;;;1.17;1.07;;;25.00;99.90;;;;;;1959878;73;21055;-72
2021/09/18 11:47:53;;;;;;;0.90;0.90;;;25.50;99.90;;;;;;1959398;73;21125;-72
2021/09/18 11:50:19;;;;;;;1.07;1.02;;;25.40;99.90;;;;;;1958376;73;21148;-72
2021/09/18 11:52:45;;;;;;;1.20;1.07;;;26.10;99.90;;;;;;1958585;73;21054;-73
2021/09/18 11:55:11;;;;;;;1.12;1.07;;;27.00;99.90;;;;;;1958504;73;21124;-74
2021/09/18 11:57:37;;;;;;;2.42;1.50;;;26.40;99.90;;;;;;1958623;73;21128;-75
2021/09/18 12:00:03;;;;;;;0.90;0.90;;;26.40;99.90;;;;;;1958402;73;21120;-72
2021/09/18 12:02:30;;;;;;;1.40;1.30;;;25.50;99.90;;;;;;1958503;73;21122;-76
2021/09/18 12:04:57;;;;;;;1.20;1.00;;;25.90;99.90;;;;;;1958394;73;21124;-73
2021/09/18 12:07:23;;;;;;;1.40;1.30;;;26.00;99.90;;;;;;1958582;73;21087;-77
2021/09/18 12:09:49;;;;;;;1.20;1.10;;;25.50;99.90;;;;;;1958454;72;21150;-78
2021/09/18 12:12:15;;;;;;;1.20;1.07;;;24.70;99.90;;;;;;1958356;73;21066;-77
2021/09/18 12:14:43;;;;;;;1.65;1.32;;;23.80;99.90;;;;;;1958430;73;21208;-79
2021/09/18 12:17:09;;;;;;;1.30;1.20;;;23.50;99.90;;;;;;1958313;72;21545;-79
2021/09/18 12:19:35;;;;;;;2.25;1.10;;;23.60;99.90;;;;;;1958410;72;21080;-81
2021/09/18 12:22:02;;;;;;;2.22;1.20;;;23.60;99.90;;;;;;1958380;73;21083;-76
2021/09/18 12:24:28;;;;;;;3.30;1.75;;;23.50;99.90;;;;;;1958439;73;21181;-76
2021/09/18 12:26:54;;;;;;;6.15;1.98;;;23.00;99.90;;;;;;1958300;73;21515;-75
2021/09/18 12:29:20;;;;;;;5.50;2.60;;;22.90;99.90;;;;;;1958252;73;21556;-76
2021/09/18 12:31:51;;;;;;;1.12;1.12;;;22.70;99.90;;;;;;1958278;73;21507;-73
2021/09/18 12:34:14;;;;;;;0.98;0.98;;;22.80;99.90;;;;;;1956963;72;21091;-75
2021/09/18 12:36:41;;;;;;;1.20;1.10;;;23.90;99.90;;;;;;1958241;73;21054;-73
2021/09/18 12:39:08;;;;;;;1.15;1.07;;;25.10;99.90;;;;;;1958417;73;21116;-75
2021/09/18 12:41:34;;;;;;;3.25;1.00;;;25.50;99.90;;;;;;1958346;73;21075;-77
2021/09/18 12:44:00;;;;;;;0.98;0.98;;;26.20;99.90;;;;;;1958405;73;21047;-78